createdAt,value
2019-03-24T00:01:41.187Z,5.70
2019-03-24T00:06:34.757Z,6.00
2019-03-24T00:09:04.281Z,5.60
2019-03-24T00:11:32.898Z,6.20
2019-03-24T00:14:01.477Z,5.60
2019-03-24T00:16:30.129Z,5.30
2019-03-24T00:18:58.665Z,5.20
2019-03-24T00:21:27.218Z,5.30
2019-03-24T00:23:55.799Z,5.50
2019-03-24T00:26:24.373Z,5.40
2019-03-24T00:28:52.927Z,5.40
2019-03-24T00:31:21.508Z,6.00
2019-03-24T00:33:50.061Z,5.70
2019-03-24T00:36:18.608Z,5.30
2019-03-24T00:38:47.185Z,5.10
2019-03-24T00:41:15.732Z,5.20
2019-03-24T00:43:44.310Z,5.10
2019-03-24T00:46:12.926Z,5.30
2019-03-24T00:48:41.577Z,5.20
2019-03-24T00:51:10.128Z,5.80
2019-03-24T00:53:38.704Z,5.10
2019-03-24T00:58:35.508Z,5.00
2019-03-24T01:01:04.194Z,5.20
2019-03-24T01:06:01.930Z,5.10
2019-03-24T01:08:30.636Z,5.10
2019-03-24T01:15:55.803Z,4.90
2019-03-24T01:18:24.387Z,4.90
2019-03-24T01:23:21.650Z,4.80
2019-03-24T01:25:50.270Z,4.80
2019-03-24T01:28:18.849Z,4.90
2019-03-24T01:33:15.694Z,4.90
2019-03-24T01:35:44.274Z,4.60
2019-03-24T01:38:12.818Z,4.60
2019-03-24T01:40:41.388Z,4.50
2019-03-24T01:43:09.941Z,4.50
2019-03-24T01:48:06.817Z,4.30
2019-03-24T01:50:35.393Z,4.20
2019-03-24T01:53:03.937Z,4.30
2019-03-24T01:55:32.581Z,4.20
2019-03-24T01:58:01.128Z,4.30
2019-03-24T02:05:26.186Z,4.00
2019-03-24T02:07:54.733Z,3.90
2019-03-24T02:10:23.313Z,4.00
2019-03-24T02:12:51.852Z,4.00
2019-03-24T02:15:20.424Z,4.00
2019-03-24T02:17:49.035Z,4.10
2019-03-24T02:22:46.460Z,3.90
2019-03-24T02:25:15.033Z,3.90
2019-03-24T02:27:43.582Z,3.80
2019-03-24T02:30:13.764Z,3.80
2019-03-24T02:32:42.401Z,3.70
2019-03-24T02:35:11.084Z,3.70
2019-03-24T02:37:39.663Z,3.70
2019-03-24T02:40:09.641Z,3.80
2019-03-24T02:42:38.296Z,3.80
2019-03-24T02:45:07.487Z,3.70
2019-03-24T02:47:36.057Z,3.70
2019-03-24T02:50:06.037Z,3.70
2019-03-24T02:55:03.221Z,3.60
2019-03-24T02:57:31.789Z,3.50
2019-03-24T03:04:56.794Z,3.70
2019-03-24T03:07:25.361Z,3.50
2019-03-24T03:09:53.908Z,3.60
2019-03-24T03:12:22.564Z,3.40
2019-03-24T03:19:47.573Z,3.30
2019-03-24T03:22:16.226Z,3.40
2019-03-24T03:24:44.765Z,3.60
2019-03-24T03:27:13.337Z,3.50
2019-03-24T03:34:38.363Z,3.30
2019-03-24T03:37:06.983Z,3.30
2019-03-24T03:39:35.548Z,3.30
2019-03-24T03:42:04.230Z,3.40
2019-03-24T03:44:32.877Z,3.40
2019-03-24T03:47:01.422Z,3.40
2019-03-24T03:51:58.222Z,3.20
2019-03-24T03:54:26.789Z,3.20
2019-03-24T03:56:55.338Z,3.20
2019-03-24T03:59:23.991Z,3.20
2019-03-24T04:01:52.528Z,3.30
2019-03-24T04:04:21.096Z,3.30
2019-03-24T04:09:17.881Z,3.10
2019-03-24T04:11:46.506Z,3.10
2019-03-24T04:14:15.140Z,3.10
2019-03-24T04:16:43.684Z,3.10
2019-03-24T04:19:12.254Z,3.10
2019-03-24T04:21:40.804Z,3.20
2019-03-24T04:26:37.597Z,3.00
2019-03-24T04:29:06.260Z,3.10
2019-03-24T04:31:34.807Z,3.00
2019-03-24T04:34:03.390Z,3.20
2019-03-24T04:36:31.928Z,3.00
2019-03-24T04:39:00.550Z,3.10
2019-03-24T04:41:29.117Z,3.00
2019-03-24T04:43:57.662Z,3.10
2019-03-24T04:46:26.236Z,2.90
2019-03-24T04:48:54.776Z,2.90
2019-03-24T04:51:23.356Z,2.80
2019-03-24T04:58:48.364Z,3.00
2019-03-24T05:01:17.005Z,2.80
2019-03-24T05:03:45.548Z,2.80
2019-03-24T05:06:14.564Z,2.80
2019-03-24T05:08:44.548Z,2.80
2019-03-24T05:11:13.192Z,2.70
2019-03-24T05:13:41.734Z,2.70
2019-03-24T05:33:28.400Z,2.50
2019-03-24T05:35:56.974Z,2.60
2019-03-24T05:38:25.515Z,2.50
2019-03-24T05:40:54.156Z,2.50
2019-03-24T05:48:19.163Z,2.50
2019-03-24T05:50:47.712Z,2.50
2019-03-24T05:53:16.284Z,2.60
2019-03-24T05:55:44.896Z,2.70
2019-03-24T05:58:13.476Z,2.70
2019-03-24T06:03:10.267Z,2.80
2019-03-24T06:05:38.810Z,2.70
2019-03-24T06:08:07.379Z,2.80
2019-03-24T06:10:35.926Z,2.90
2019-03-24T06:18:01.036Z,2.80
2019-03-24T06:20:29.582Z,3.00
2019-03-24T06:22:58.148Z,3.20
2019-03-24T06:25:26.694Z,3.10
2019-03-24T06:27:55.265Z,3.10
2019-03-24T06:30:23.804Z,3.20
2019-03-24T06:35:20.611Z,3.40
2019-03-24T06:40:19.758Z,3.70
2019-03-24T06:42:48.260Z,3.90
2019-03-24T06:45:16.806Z,3.80
2019-03-24T06:47:45.378Z,3.90
2019-03-24T06:50:14.760Z,3.90
2019-03-24T06:52:43.335Z,4.20
2019-03-24T06:57:40.192Z,4.50
2019-03-24T07:00:10.568Z,4.50
2019-03-24T07:02:39.145Z,5.00
2019-03-24T07:05:08.215Z,4.90
2019-03-24T07:07:36.828Z,4.90
2019-03-24T07:10:07.975Z,4.80
2019-03-24T07:12:36.760Z,5.10
2019-03-24T07:15:08.040Z,5.20
2019-03-24T07:17:37.707Z,5.40
2019-03-24T07:22:34.921Z,5.60
2019-03-24T07:30:00.657Z,5.70
2019-03-24T07:32:29.137Z,5.70
2019-03-24T07:34:57.712Z,6.00
2019-03-24T07:37:26.252Z,5.90
2019-03-24T07:39:54.832Z,6.00
2019-03-24T07:42:23.444Z,5.90
2019-03-24T07:47:20.498Z,6.20
2019-03-24T07:49:49.068Z,6.30
2019-03-24T07:52:17.616Z,6.40
2019-03-24T07:54:46.204Z,6.50
2019-03-24T07:57:14.748Z,6.70
2019-03-24T07:59:43.312Z,6.60
2019-03-24T08:04:40.104Z,6.90
2019-03-24T08:07:08.653Z,7.10
2019-03-24T08:09:37.367Z,7.10
2019-03-24T08:12:06.036Z,7.30
2019-03-24T08:17:02.833Z,7.40
2019-03-24T08:19:31.413Z,7.70
2019-03-24T08:22:00.025Z,7.70
2019-03-24T08:24:28.601Z,8.00
2019-03-24T08:27:18.057Z,8.00
2019-03-24T08:32:14.834Z,8.50
2019-03-24T08:34:43.408Z,8.60
2019-03-24T08:37:11.950Z,8.50
2019-03-24T08:42:08.884Z,8.90
2019-03-24T08:44:37.601Z,9.30
2019-03-24T08:47:06.145Z,9.30
2019-03-24T08:49:34.716Z,9.70
2019-03-24T08:52:03.271Z,9.40
2019-03-24T08:54:31.851Z,9.80
2019-03-24T08:57:00.393Z,10.00
2019-03-24T08:59:28.968Z,9.70
2019-03-24T09:01:57.517Z,10.10
2019-03-24T09:04:26.074Z,10.20
2019-03-24T09:06:54.846Z,10.10
2019-03-24T09:09:23.589Z,10.30
2019-03-24T09:11:52.147Z,10.40
2019-03-24T09:14:20.700Z,11.30
2019-03-24T09:16:49.280Z,10.70
2019-03-24T09:19:17.833Z,11.10
2019-03-24T09:21:46.412Z,11.20
2019-03-24T09:24:14.963Z,11.10
2019-03-24T09:26:43.541Z,11.30
2019-03-24T09:34:08.561Z,11.60
2019-03-24T09:36:37.140Z,12.40
2019-03-24T09:39:06.396Z,11.50
2019-03-24T09:41:35.040Z,11.90
2019-03-24T09:44:03.655Z,11.90
2019-03-24T09:46:32.443Z,11.90
2019-03-24T09:49:03.343Z,12.00
2019-03-24T09:51:31.200Z,12.20
2019-03-24T09:53:59.747Z,12.20
2019-03-24T09:56:28.399Z,12.80
2019-03-24T09:58:56.943Z,12.50
2019-03-24T10:01:25.520Z,12.70
2019-03-24T10:03:54.072Z,13.00
2019-03-24T10:06:22.649Z,13.50
2019-03-24T10:08:52.104Z,12.80
2019-03-24T10:13:48.904Z,13.60
2019-03-24T10:16:17.480Z,13.50
2019-03-24T10:18:46.028Z,13.00
2019-03-24T10:21:14.607Z,13.30
2019-03-24T10:23:43.160Z,13.40
2019-03-24T10:26:11.736Z,13.60
2019-03-24T10:28:40.280Z,13.50
2019-03-24T10:31:08.860Z,13.30
2019-03-24T10:33:37.409Z,13.50
2019-03-24T10:36:06.126Z,14.00
2019-03-24T10:38:34.671Z,14.30
2019-03-24T10:41:03.215Z,13.60
2019-03-24T10:46:00.084Z,14.30
2019-03-24T10:48:33.672Z,13.90
2019-03-24T10:50:58.862Z,14.30
2019-03-24T10:53:27.440Z,14.00
2019-03-24T10:55:56.060Z,14.10
2019-03-24T10:58:24.636Z,14.50
2019-03-24T11:00:53.185Z,14.60
2019-03-24T11:03:21.760Z,14.40
2019-03-24T11:05:50.311Z,14.20
2019-03-24T11:08:18.960Z,14.70
2019-03-24T11:10:47.509Z,14.70
2019-03-24T11:13:16.081Z,14.70
2019-03-24T11:15:44.627Z,14.70
2019-03-24T11:18:13.204Z,14.60
2019-03-24T11:23:10.003Z,14.80
2019-03-24T11:25:38.560Z,15.00
2019-03-24T11:28:07.276Z,14.70
2019-03-24T11:30:35.829Z,15.00
2019-03-24T11:33:04.548Z,15.40
2019-03-24T11:35:33.097Z,15.30
2019-03-24T11:38:01.692Z,15.50
2019-03-24T11:40:30.221Z,15.50
2019-03-24T11:42:58.796Z,15.50
2019-03-24T11:45:27.372Z,15.70
2019-03-24T11:47:55.919Z,15.60
2019-03-24T11:50:24.500Z,15.80
2019-03-24T11:55:21.303Z,16.10
2019-03-24T11:57:51.552Z,15.70
2019-03-24T12:00:23.380Z,15.60
2019-03-24T12:02:51.928Z,16.10
2019-03-24T12:05:20.512Z,15.60
2019-03-24T12:10:17.379Z,16.00
2019-03-24T12:12:45.931Z,16.00
2019-03-24T12:15:14.671Z,15.80
2019-03-24T12:17:43.219Z,16.30
2019-03-24T12:20:12.036Z,16.10
2019-03-24T12:22:40.588Z,16.10
2019-03-24T12:25:09.312Z,15.90
2019-03-24T12:27:37.853Z,16.60
2019-03-24T12:30:08.273Z,16.00
2019-03-24T12:32:36.888Z,16.40
2019-03-24T12:35:07.607Z,16.50
2019-03-24T12:37:36.818Z,16.90
2019-03-24T12:40:09.866Z,16.30
2019-03-24T12:42:39.070Z,16.50
2019-03-24T12:45:09.185Z,16.50
2019-03-24T12:47:37.804Z,16.60
2019-03-24T12:52:36.688Z,16.80
2019-03-24T12:55:06.977Z,16.80
2019-03-24T12:57:35.525Z,16.60
2019-03-24T13:00:06.912Z,16.60
2019-03-24T13:02:35.464Z,17.10
2019-03-24T13:05:06.765Z,17.10
2019-03-24T13:07:35.299Z,17.20
2019-03-24T13:10:08.832Z,16.80
2019-03-24T13:12:37.473Z,17.20
2019-03-24T13:15:09.447Z,17.30
2019-03-24T13:17:38.177Z,17.00
2019-03-24T13:20:07.907Z,17.20
2019-03-24T13:22:36.507Z,17.20
2019-03-24T13:25:08.084Z,17.00
2019-03-24T13:27:36.724Z,17.20
2019-03-24T13:30:07.019Z,16.70
2019-03-24T13:32:35.596Z,16.80
2019-03-24T13:35:04.888Z,17.10
2019-03-24T13:40:01.755Z,16.80
2019-03-24T13:42:30.337Z,16.60
2019-03-24T13:44:58.887Z,16.80
2019-03-24T13:47:27.532Z,17.10
2019-03-24T13:49:56.150Z,17.10
2019-03-24T13:52:24.804Z,16.80
2019-03-24T13:57:21.757Z,17.20
2019-03-24T13:59:50.331Z,16.90
2019-03-24T14:02:19.019Z,16.70
2019-03-24T14:04:47.709Z,17.30
2019-03-24T14:07:16.308Z,17.20
2019-03-24T14:09:44.889Z,17.50
2019-03-24T14:14:41.684Z,17.60
2019-03-24T14:17:10.232Z,17.70
2019-03-24T14:19:38.880Z,17.80
2019-03-24T14:22:07.568Z,18.00
2019-03-24T14:24:36.148Z,17.60
2019-03-24T14:27:04.778Z,18.10
2019-03-24T14:29:33.345Z,17.80
2019-03-24T14:32:01.959Z,17.80
2019-03-24T14:34:30.535Z,18.00
2019-03-24T14:36:59.085Z,17.60
2019-03-24T14:39:27.664Z,17.80
2019-03-24T14:41:56.311Z,17.40
2019-03-24T14:44:24.864Z,17.40
2019-03-24T14:46:53.439Z,17.20
2019-03-24T14:49:21.992Z,17.40
2019-03-24T14:51:50.575Z,17.70
2019-03-24T14:54:19.120Z,17.50
2019-03-24T14:56:47.696Z,17.10
2019-03-24T14:59:16.245Z,17.40
2019-03-24T15:01:44.820Z,17.10
2019-03-24T15:06:41.616Z,17.00
2019-03-24T15:09:10.233Z,16.70
2019-03-24T15:11:38.805Z,17.20
2019-03-24T15:14:07.360Z,16.90
2019-03-24T15:16:35.936Z,17.20
2019-03-24T15:21:32.804Z,16.70
2019-03-24T15:24:01.352Z,17.30
2019-03-24T15:26:29.929Z,16.70
2019-03-24T15:28:58.481Z,17.20
2019-03-24T15:31:27.056Z,17.00
2019-03-24T15:33:55.611Z,16.70
2019-03-24T15:36:24.156Z,16.70
2019-03-24T15:38:52.737Z,16.80
2019-03-24T15:41:21.323Z,16.30
2019-03-24T15:43:49.937Z,16.60
2019-03-24T15:48:46.808Z,16.40
2019-03-24T15:51:17.104Z,16.30
2019-03-24T15:53:45.584Z,16.20
2019-03-24T15:56:14.136Z,16.00
2019-03-24T15:58:42.712Z,15.80
2019-03-24T16:01:11.263Z,16.10
2019-03-24T16:06:08.066Z,15.90
2019-03-24T16:08:36.712Z,15.60
2019-03-24T16:11:05.400Z,16.00
2019-03-24T16:13:33.978Z,15.90
2019-03-24T16:16:02.524Z,15.50
2019-03-24T16:18:31.104Z,15.90
2019-03-24T16:23:27.973Z,15.70
2019-03-24T16:25:56.523Z,16.00
2019-03-24T16:28:25.096Z,15.90
2019-03-24T16:30:53.715Z,15.90
2019-03-24T16:33:22.300Z,15.70
2019-03-24T16:35:50.853Z,15.70
2019-03-24T16:40:47.648Z,15.30
2019-03-24T16:43:16.236Z,15.30
2019-03-24T16:45:47.140Z,15.00
2019-03-24T16:48:15.000Z,14.90
2019-03-24T16:50:43.616Z,14.90
2019-03-24T16:53:12.266Z,14.80
2019-03-24T16:58:09.136Z,14.90
2019-03-24T17:00:37.825Z,14.50
2019-03-24T17:03:06.400Z,14.50
2019-03-24T17:05:34.964Z,14.40
2019-03-24T17:08:03.544Z,14.40
2019-03-24T17:10:32.613Z,14.50
2019-03-24T17:13:01.160Z,14.20
2019-03-24T17:17:57.956Z,14.40
2019-03-24T17:20:26.533Z,14.30
2019-03-24T17:25:23.330Z,14.20
2019-03-24T17:27:51.878Z,14.20
2019-03-24T17:30:20.595Z,14.30
2019-03-24T17:32:49.214Z,13.60
2019-03-24T17:35:17.787Z,13.60
2019-03-24T17:37:46.339Z,13.40
2019-03-24T17:40:15.143Z,13.50
2019-03-24T17:42:43.760Z,13.60
2019-03-24T17:45:13.180Z,13.40
2019-03-24T17:47:41.728Z,13.90
2019-03-24T17:52:40.865Z,13.80
2019-03-24T17:55:09.684Z,13.50
2019-03-24T17:57:38.232Z,13.60
2019-03-24T18:00:09.816Z,13.70
2019-03-24T18:02:38.366Z,13.80
2019-03-24T18:05:07.780Z,13.70
2019-03-24T18:07:36.328Z,13.40
2019-03-24T18:10:06.243Z,13.30
2019-03-24T18:12:34.793Z,13.20
2019-03-24T18:15:04.316Z,13.40
2019-03-24T18:17:32.930Z,13.30
2019-03-24T18:20:01.512Z,13.20
2019-03-24T18:24:58.297Z,12.80
2019-03-24T18:27:26.920Z,13.10
2019-03-24T18:29:55.509Z,12.80
2019-03-24T18:32:24.124Z,12.80
2019-03-24T18:34:52.757Z,12.90
2019-03-24T18:37:21.296Z,12.90
2019-03-24T18:39:49.860Z,12.80
2019-03-24T18:42:18.439Z,12.60
2019-03-24T18:44:46.987Z,12.60
2019-03-24T18:47:15.565Z,12.50
2019-03-24T18:49:44.129Z,12.40
2019-03-24T18:52:22.335Z,11.90
2019-03-24T18:54:42.888Z,12.00
2019-03-24T18:57:11.469Z,11.60
2019-03-24T18:59:40.012Z,11.80
2019-03-24T19:02:08.664Z,11.70
2019-03-24T19:04:37.209Z,11.60
2019-03-24T19:07:05.784Z,11.70
2019-03-24T19:09:34.404Z,11.40
2019-03-24T19:12:03.051Z,11.70
2019-03-24T19:14:31.600Z,11.60
2019-03-24T19:17:00.176Z,11.40
2019-03-24T19:19:28.730Z,11.60
2019-03-24T19:21:57.371Z,11.10
2019-03-24T19:24:25.932Z,10.90
2019-03-24T19:26:54.516Z,10.90
2019-03-24T19:29:23.064Z,10.80
2019-03-24T19:31:51.719Z,10.80
2019-03-24T19:34:20.273Z,11.00
2019-03-24T19:36:49.624Z,11.00
2019-03-24T19:39:18.178Z,11.00
2019-03-24T19:41:46.821Z,10.80
2019-03-24T19:44:15.412Z,10.90
2019-03-24T19:46:43.970Z,11.00
2019-03-24T19:49:12.540Z,10.70
2019-03-24T19:54:09.332Z,10.60
2019-03-24T19:56:37.880Z,10.90
2019-03-24T19:59:06.451Z,10.20
2019-03-24T20:01:34.999Z,10.20
2019-03-24T20:04:03.816Z,10.40
2019-03-24T20:06:32.370Z,10.50
2019-03-24T20:09:00.948Z,10.50
2019-03-24T20:11:29.504Z,10.10
2019-03-24T20:13:58.153Z,10.60
2019-03-24T20:16:26.710Z,10.00
2019-03-24T20:18:55.279Z,9.60
2019-03-24T20:21:24.391Z,9.50
2019-03-24T20:23:52.964Z,9.60
2019-03-24T20:28:49.752Z,9.40
2019-03-24T20:33:46.549Z,9.70
2019-03-24T20:36:15.100Z,9.50
2019-03-24T20:38:43.669Z,9.10
2019-03-24T20:41:12.212Z,9.20
2019-03-24T20:43:40.788Z,9.20
2019-03-24T20:46:09.405Z,9.20
2019-03-24T20:51:06.197Z,9.10
2019-03-24T20:53:34.739Z,9.20
2019-03-24T20:56:03.585Z,9.30
2019-03-24T21:01:00.369Z,8.90
2019-03-24T21:03:28.916Z,8.90
2019-03-24T21:05:57.484Z,8.70
2019-03-24T21:08:26.036Z,8.60
2019-03-24T21:10:54.673Z,8.70
2019-03-24T21:13:23.228Z,8.70
2019-03-24T21:18:20.012Z,8.90
2019-03-24T21:20:48.584Z,8.40
2019-03-24T21:23:17.134Z,8.70
2019-03-24T21:25:45.704Z,8.70
2019-03-24T21:28:14.288Z,8.50
2019-03-24T21:30:42.996Z,8.20
2019-03-24T21:33:11.610Z,8.40
2019-03-24T21:35:40.256Z,8.30
2019-03-24T21:38:08.868Z,8.50
2019-03-24T21:40:37.516Z,8.50
2019-03-24T21:43:06.604Z,8.40
2019-03-24T21:48:03.832Z,8.20
2019-03-24T21:50:32.376Z,8.30
2019-03-24T21:53:00.953Z,8.30
2019-03-24T21:55:29.492Z,8.10
2019-03-24T22:00:32.067Z,8.20
2019-03-24T22:03:00.635Z,8.10
2019-03-24T22:05:29.182Z,7.90
2019-03-24T22:07:57.756Z,7.90
2019-03-24T22:10:26.292Z,7.90
2019-03-24T22:12:54.863Z,7.90
2019-03-24T22:15:23.406Z,8.00
2019-03-24T22:17:51.976Z,8.00
2019-03-24T22:20:20.524Z,7.70
2019-03-24T22:22:49.100Z,7.50
2019-03-24T22:27:45.908Z,7.80
2019-03-24T22:30:14.572Z,7.80
2019-03-24T22:32:43.144Z,7.60
2019-03-24T22:35:11.758Z,7.40
2019-03-24T22:37:40.335Z,7.60
2019-03-24T22:40:09.218Z,7.40
2019-03-24T22:47:34.564Z,7.60
2019-03-24T22:50:04.473Z,7.80
2019-03-24T22:52:33.012Z,7.60
2019-03-24T22:55:01.588Z,7.60
2019-03-24T22:57:32.556Z,7.60
2019-03-24T23:00:00.352Z,7.80
2019-03-24T23:02:29.033Z,7.70
2019-03-24T23:04:57.676Z,7.80
2019-03-24T23:07:26.217Z,7.70
2019-03-24T23:09:54.856Z,7.80
2019-03-24T23:12:23.404Z,7.70
2019-03-24T23:14:51.977Z,7.90
2019-03-24T23:17:20.588Z,7.90
2019-03-24T23:19:49.164Z,7.60
2019-03-24T23:22:17.708Z,7.70
2019-03-24T23:24:46.298Z,7.50
2019-03-24T23:27:14.836Z,7.70
2019-03-24T23:29:43.387Z,7.80
2019-03-24T23:32:11.949Z,7.60
2019-03-24T23:34:40.564Z,7.60
2019-03-24T23:39:37.352Z,7.70
2019-03-24T23:42:06.005Z,7.60
2019-03-24T23:44:34.549Z,7.70
2019-03-24T23:47:03.120Z,7.70
2019-03-24T23:49:31.668Z,7.80
2019-03-24T23:52:00.313Z,7.90
2019-03-24T23:56:57.109Z,7.60
2019-03-24T23:59:25.652Z,7.70
